Time;durP1;ratioP1;P1;durP2;ratioP2;P2;SDS_P1;SDS_P2;PMS_P1;PMS_P2;Temp;Humidity;BMP_temperature;BMP_pressure;BME280_temperature;BME280_humidity;BME280_pressure;Samples;Min_cycle;Max_cycle;Signal;HPM_P1;HPM_P2
2023/04/14 00:02:08;;;;;;;2.37;2.27;;;7.50;99.90;;;7.45;nan;99936.41;5015992;28;21360;-65
2023/04/14 00:04:35;;;;;;;1.97;1.87;;;7.40;99.90;;;7.48;nan;99937.97;5016045;28;21169;-67
2023/04/14 00:07:02;;;;;;;2.00;1.90;;;7.50;99.90;;;7.46;nan;99929.47;5013421;28;20663;-68
2023/04/14 00:09:29;;;;;;;2.03;1.93;;;7.50;99.90;;;7.48;nan;99923.25;5010695;28;20638;-68
2023/04/14 00:11:56;;;;;;;2.00;1.90;;;7.50;99.90;;;7.49;nan;99926.69;5010340;28;20698;-67
2023/04/14 00:14:23;;;;;;;2.43;2.23;;;7.50;99.90;;;7.53;nan;99930.72;5014433;28;20629;-68
2023/04/14 00:16:50;;;;;;;2.83;2.33;;;7.50;99.90;;;7.56;nan;99930.50;5016174;28;20718;-67
2023/04/14 00:19:17;;;;;;;2.80;2.60;;;7.50;99.90;;;7.55;nan;99929.66;5016779;28;20643;-66
2023/04/14 00:21:44;;;;;;;2.60;1.90;;;7.50;99.90;;;7.54;nan;99920.22;5016867;28;20636;-66
2023/04/14 00:24:11;;;;;;;2.23;1.40;;;7.60;99.90;;;7.53;nan;99931.53;5008161;28;20993;-67
2023/04/14 00:26:38;;;;;;;1.77;1.67;;;7.50;99.90;;;7.47;nan;99936.34;5016528;28;20664;-66
2023/04/14 00:29:05;;;;;;;2.40;2.30;;;7.50;99.90;;;7.42;nan;99926.28;5012289;28;20677;-68
2023/04/14 00:31:32;;;;;;;4.70;2.30;;;7.50;99.90;;;7.41;nan;99929.00;4997231;28;20618;-66
2023/04/14 00:33:59;;;;;;;1.87;1.77;;;7.40;99.90;;;7.38;nan;99926.59;5017729;28;20625;-67
2023/04/14 00:36:26;;;;;;;2.47;2.17;;;7.40;99.90;;;7.41;nan;99934.97;5016023;28;20665;-66
2023/04/14 00:38:53;;;;;;;2.00;1.90;;;7.40;99.90;;;7.42;nan;99935.81;5011592;28;21252;-66
2023/04/14 00:41:20;;;;;;;2.67;2.47;;;7.40;99.90;;;7.42;nan;99931.47;4997890;28;20617;-65
2023/04/14 00:43:47;;;;;;;2.57;2.37;;;7.50;99.90;;;7.42;nan;99939.25;5010557;28;20673;-67
2023/04/14 00:46:15;;;;;;;1.90;1.80;;;7.40;99.90;;;7.40;nan;99930.75;5015014;28;20661;-67
2023/04/14 00:48:43;;;;;;;2.37;2.17;;;7.40;99.90;;;7.37;nan;99932.72;5010422;28;20644;-66
2023/04/14 00:51:10;;;;;;;3.30;2.07;;;7.40;99.90;;;7.35;nan;99932.81;5010724;28;21243;-68
2023/04/14 00:53:38;;;;;;;2.27;2.17;;;7.40;99.90;;;7.36;nan;99933.66;5015715;28;21200;-66
2023/04/14 00:56:05;;;;;;;2.33;2.23;;;7.30;99.90;;;7.34;nan;99930.34;5013554;28;20637;-66
2023/04/14 00:58:32;;;;;;;2.37;2.17;;;7.30;99.90;;;7.32;nan;99921.84;5007413;28;21467;-66
2023/04/14 01:01:00;;;;;;;2.27;2.07;;;7.30;99.90;;;7.23;nan;99918.09;5005725;28;20645;-66
2023/04/14 01:03:27;;;;;;;2.20;2.10;;;7.30;99.90;;;7.19;nan;99915.84;5008703;28;20669;-66
2023/04/14 01:05:55;;;;;;;2.50;2.30;;;7.20;99.90;;;7.14;nan;99918.75;5010164;28;20641;-66
2023/04/14 01:08:23;;;;;;;2.20;1.80;;;7.20;99.90;;;7.07;nan;99914.91;5009215;28;21010;-68
2023/04/14 01:11:11;;;;;;;2.00;1.90;;;7.10;99.90;;;7.04;nan;99928.09;5009765;28;20633;-67
2023/04/14 01:13:52;;;;;;;2.50;2.30;;;7.00;99.90;;;7.01;nan;99928.28;5008257;28;20649;-66
2023/04/14 01:16:32;;;;;;;2.17;2.00;;;7.00;99.90;;;6.95;nan;99921.78;5012206;28;21248;-67
2023/04/14 01:19:44;;;;;;;2.60;2.40;;;7.00;99.90;;;6.90;nan;99923.00;5003610;28;20645;-66
2023/04/14 01:22:13;;;;;;;2.17;2.07;;;6.90;99.90;;;6.82;nan;99918.34;4992171;28;21069;-66
2023/04/14 01:25:05;;;;;;;2.40;2.20;;;6.90;99.90;;;6.84;nan;99920.81;5001729;28;20637;-66
2023/04/14 01:27:53;;;;;;;1.77;1.67;;;6.90;99.90;;;6.82;nan;99925.28;5013447;28;21093;-67
2023/04/14 01:30:42;;;;;;;1.80;1.70;;;6.90;99.90;;;6.80;nan;99928.00;5013354;28;20640;-65
2023/04/14 01:33:15;;;;;;;2.23;2.03;;;6.80;99.90;;;6.79;nan;99926.31;5011583;28;21193;-66
2023/04/14 01:35:49;;;;;;;2.30;1.90;;;6.80;99.90;;;6.79;nan;99925.50;5011962;28;20636;-66
2023/04/14 01:38:27;;;;;;;2.27;2.07;;;6.80;99.90;;;6.77;nan;99924.78;5011154;28;21237;-66
2023/04/14 01:41:04;;;;;;;1.77;1.67;;;6.80;99.90;;;6.75;nan;99922.28;5007701;28;20692;-66
2023/04/14 01:43:34;;;;;;;2.73;2.20;;;6.80;99.90;;;6.73;nan;99918.16;5006880;28;20669;-67
2023/04/14 01:46:06;;;;;;;2.03;1.93;;;6.80;99.90;;;6.74;nan;99920.63;4991476;28;21174;-66
2023/04/14 01:48:34;;;;;;;2.40;2.20;;;6.80;99.90;;;6.78;nan;99936.81;4992558;28;20622;-66
2023/04/14 01:51:02;;;;;;;3.03;2.50;;;6.80;99.90;;;6.76;nan;99936.06;5002883;28;20637;-66
2023/04/14 01:53:32;;;;;;;3.27;1.97;;;6.80;99.90;;;6.70;nan;99933.91;5009142;28;20641;-67
2023/04/14 01:55:59;;;;;;;2.42;2.22;;;6.70;99.90;;;6.65;nan;99936.78;4999646;28;21256;-66
2023/04/14 01:58:27;;;;;;;2.40;2.30;;;6.70;99.90;;;6.63;nan;99937.81;5039215;22;20241;-66
2023/04/14 02:00:55;;;;;;;2.30;2.20;;;6.70;99.90;;;6.58;nan;99939.91;5030883;28;20641;-66
2023/04/14 02:03:23;;;;;;;1.97;1.87;;;6.60;99.90;;;6.56;nan;99937.41;5030949;28;20663;-65
2023/04/14 02:05:53;;;;;;;2.57;2.37;;;6.60;99.90;;;6.53;nan;99939.38;5028851;28;20633;-66
2023/04/14 02:08:22;;;;;;;3.73;2.33;;;6.60;99.90;;;6.53;nan;99944.56;5031989;28;20664;-67
2023/04/14 02:10:53;;;;;;;2.60;2.50;;;6.60;99.90;;;6.50;nan;99949.94;5029918;28;20689;-66
2023/04/14 02:13:21;;;;;;;2.33;2.13;;;6.60;99.90;;;6.47;nan;99956.16;5044820;28;20644;-67
2023/04/14 02:15:50;;;;;;;1.40;1.30;;;6.60;99.90;;;6.45;nan;99963.22;5008973;28;21036;-66
2023/04/14 02:18:21;;;;;;;1.27;1.20;;;6.50;99.90;;;6.41;nan;99973.88;5018359;28;20703;-65
2023/04/14 02:20:51;;;;;;;2.00;1.83;;;6.50;99.90;;;6.28;nan;99964.28;5014404;28;20640;-67
2023/04/14 02:23:18;;;;;;;1.20;1.20;;;6.40;99.90;;;6.14;nan;99964.34;5031603;28;20660;-66
2023/04/14 02:25:55;;;;;;;2.50;2.20;;;6.20;99.90;;;6.00;nan;99969.59;5030343;28;20666;-66
2023/04/14 02:28:27;;;;;;;1.85;1.73;;;6.10;99.90;;;5.92;nan;99971.00;5030025;28;20662;-66
2023/04/14 02:30:58;;;;;;;2.60;2.05;;;6.00;99.90;;;5.89;nan;99971.19;5038364;28;20239;-67
2023/04/14 02:33:30;;;;;;;1.80;1.70;;;5.90;99.90;;;5.84;nan;99971.47;5014868;28;20692;-67
2023/04/14 02:36:07;;;;;;;1.77;1.67;;;5.90;99.90;;;5.84;nan;99976.66;5031607;28;20616;-66
2023/04/14 02:38:51;;;;;;;2.70;2.33;;;5.90;99.90;;;5.84;nan;99975.81;5032199;28;20237;-67
2023/04/14 02:41:25;;;;;;;2.17;2.05;;;5.90;99.90;;;5.84;nan;99981.84;5031553;28;20583;-68
2023/04/14 02:44:13;;;;;;;2.10;2.00;;;5.90;99.90;;;5.87;nan;99975.63;5031468;28;20234;-66
2023/04/14 02:46:49;;;;;;;2.58;2.38;;;5.90;99.90;;;5.89;nan;99984.97;5032534;28;20216;-66
2023/04/14 02:49:17;;;;;;;1.70;1.60;;;5.90;99.90;;;5.89;nan;99991.91;5032038;28;20673;-66
2023/04/14 02:51:46;;;;;;;1.92;1.83;;;5.90;99.90;;;5.91;nan;99992.63;5031047;28;20202;-66
2023/04/14 02:54:14;;;;;;;2.83;2.15;;;5.90;99.90;;;5.91;nan;99984.88;5020008;28;20202;-67
2023/04/14 02:56:42;;;;;;;2.78;2.58;;;6.00;99.90;;;5.90;nan;99991.81;5041413;28;20202;-67
2023/04/14 02:59:09;;;;;;;2.80;2.30;;;6.00;99.90;;;5.91;nan;99988.28;5030126;28;20780;-66
2023/04/14 03:01:38;;;;;;;3.22;2.92;;;6.00;99.90;;;5.90;nan;99989.22;5029670;28;20638;-66
2023/04/14 03:04:06;;;;;;;3.72;2.10;;;6.00;99.90;;;5.88;nan;99995.41;5030788;28;20233;-66
2023/04/14 03:06:36;;;;;;;3.38;3.05;;;5.90;99.90;;;5.85;nan;99993.03;5030831;28;20198;-66
2023/04/14 03:09:05;;;;;;;3.20;2.67;;;5.90;99.90;;;5.87;nan;99988.59;5031006;28;20198;-68
2023/04/14 03:11:36;;;;;;;3.10;2.80;;;5.90;99.90;;;5.88;nan;99998.00;5030570;28;20263;-64
2023/04/14 03:14:04;;;;;;;2.47;2.28;;;5.90;99.90;;;5.87;nan;99996.34;5025031;28;20584;-67
2023/04/14 03:16:33;;;;;;;2.97;2.60;;;6.00;99.90;;;5.85;nan;99991.28;5026281;28;20206;-67
2023/04/14 03:19:03;;;;;;;2.77;2.57;;;5.90;99.90;;;5.87;nan;99993.75;5029039;28;20283;-67
2023/04/14 03:21:32;;;;;;;3.05;2.53;;;5.90;99.90;;;5.85;nan;99987.84;5024559;28;20630;-67
2023/04/14 03:24:00;;;;;;;2.15;1.92;;;5.90;99.90;;;5.84;nan;99989.59;5017963;28;20326;-67
2023/04/14 03:26:31;;;;;;;2.85;2.65;;;5.90;99.90;;;5.87;nan;99988.59;5022638;28;20267;-67
2023/04/14 03:29:01;;;;;;;4.35;3.38;;;5.90;99.90;;;5.89;nan;99987.56;5022509;28;20560;-67
2023/04/14 03:31:35;;;;;;;2.60;2.40;;;6.00;99.90;;;5.92;nan;99987.34;5024908;28;20214;-67
2023/04/14 03:34:05;;;;;;;2.30;2.20;;;6.00;99.90;;;5.91;nan;99987.47;5025723;28;20205;-67
2023/04/14 03:36:34;;;;;;;2.85;2.65;;;6.00;99.90;;;5.87;nan;99994.59;5028557;28;20235;-66
2023/04/14 03:39:04;;;;;;;3.47;3.17;;;5.90;99.90;;;5.90;nan;99988.41;5027485;28;20640;-65
2023/04/14 03:41:35;;;;;;;3.28;2.97;;;5.90;99.90;;;5.91;nan;99990.06;5023202;28;20202;-64
2023/04/14 03:44:03;;;;;;;3.60;3.28;;;6.00;99.90;;;5.90;nan;99994.38;5029439;28;20229;-66
2023/04/14 03:46:30;;;;;;;3.90;3.03;;;6.00;99.90;;;5.89;nan;99992.75;5030487;28;20198;-65
2023/04/14 03:48:58;;;;;;;3.22;2.92;;;5.90;99.90;;;5.90;nan;99994.38;5030186;28;20261;-65
2023/04/14 03:51:28;;;;;;;3.15;2.75;;;5.90;99.90;;;5.89;nan;99990.16;5029061;28;20205;-65
2023/04/14 03:53:57;;;;;;;4.13;3.47;;;5.90;99.90;;;5.90;nan;99994.38;5028803;28;20198;-65
2023/04/14 03:56:25;;;;;;;3.00;2.77;;;6.00;99.90;;;5.87;nan;99998.94;5022769;28;20676;-65
2023/04/14 03:58:54;;;;;;;4.82;3.60;;;6.00;99.90;;;5.83;nan;99993.09;5024069;28;20656;-65
2023/04/14 04:01:24;;;;;;;3.35;3.05;;;5.90;99.90;;;5.82;nan;99993.19;5027425;28;20390;-64
2023/04/14 04:03:53;;;;;;;3.90;3.45;;;5.90;99.90;;;5.78;nan;99997.72;5027959;28;20230;-66
2023/04/14 04:06:21;;;;;;;3.28;3.00;;;5.80;99.90;;;5.77;nan;99998.63;5027142;28;20229;-66
2023/04/14 04:08:49;;;;;;;3.30;3.10;;;5.80;99.90;;;5.79;nan;100001.97;5027464;28;20656;-65
2023/04/14 04:11:19;;;;;;;3.80;3.47;;;5.80;99.90;;;5.82;nan;100001.78;5024843;28;20198;-66
2023/04/14 04:13:52;;;;;;;2.90;2.70;;;5.90;99.90;;;5.85;nan;100000.78;5027844;28;20658;-65
2023/04/14 04:16:20;;;;;;;3.20;2.97;;;5.90;99.90;;;5.87;nan;100004.97;5030131;28;20212;-66
2023/04/14 04:18:49;;;;;;;4.10;3.42;;;5.90;99.90;;;5.90;nan;100002.16;5026003;28;20221;-65
2023/04/14 04:21:18;;;;;;;3.42;2.67;;;6.00;99.90;;;5.91;nan;100003.84;5022467;28;20221;-65
2023/04/14 04:23:52;;;;;;;3.28;3.03;;;5.90;99.90;;;5.88;nan;100005.75;5026800;28;20561;-66
2023/04/14 04:26:19;;;;;;;5.20;3.53;;;5.90;99.90;;;5.83;nan;100000.88;5027824;28;20194;-65
2023/04/14 04:28:47;;;;;;;4.05;3.05;;;5.90;99.90;;;5.84;nan;100002.53;5026693;28;20639;-65
2023/04/14 04:31:15;;;;;;;6.88;3.75;;;5.90;99.90;;;5.83;nan;99998.28;5029413;28;20436;-65
2023/04/14 04:33:45;;;;;;;3.90;3.50;;;5.90;99.90;;;5.84;nan;100009.47;5029137;28;20724;-63
2023/04/14 04:36:13;;;;;;;6.37;3.50;;;5.90;99.90;;;5.86;nan;100013.63;5033151;28;20586;-65
2023/04/14 04:38:41;;;;;;;3.08;2.60;;;5.90;99.90;;;5.83;nan;100016.41;5033397;28;21023;-66
2023/04/14 04:41:21;;;;;;;3.72;3.20;;;5.90;99.90;;;5.82;nan;100021.66;5033577;28;20210;-65
2023/04/14 04:43:48;;;;;;;3.50;2.58;;;5.90;99.90;;;5.80;nan;100021.75;5022633;28;20280;-67
2023/04/14 04:46:53;;;;;;;3.90;3.28;;;5.90;99.90;;;5.78;nan;100023.59;5021363;28;20209;-67
2023/04/14 04:49:21;;;;;;;3.70;3.00;;;5.90;99.90;;;5.77;nan;100018.53;4994377;28;20793;-64
2023/04/14 04:51:48;;;;;;;3.90;3.60;;;5.90;99.90;;;5.77;nan;100019.34;5014167;28;20212;-67
2023/04/14 04:54:15;;;;;;;5.15;3.53;;;5.90;99.90;;;5.76;nan;100027.22;5025696;28;20280;-67
2023/04/14 04:56:42;;;;;;;4.90;3.17;;;5.80;99.90;;;5.72;nan;100026.59;5031682;28;20252;-66
2023/04/14 04:59:10;;;;;;;2.95;2.75;;;5.80;99.90;;;5.72;nan;100024.00;5026597;28;20210;-65
2023/04/14 05:01:37;;;;;;;3.00;2.70;;;5.80;99.90;;;5.74;nan;100023.88;5029067;28;20219;-67
2023/04/14 05:04:04;;;;;;;2.65;2.40;;;5.80;99.90;;;5.81;nan;100028.59;5027638;28;20731;-67
2023/04/14 05:06:36;;;;;;;3.23;3.07;;;5.90;99.90;;;5.91;nan;100027.13;5019300;28;20228;-67
2023/04/14 05:09:03;;;;;;;3.70;3.40;;;6.00;99.90;;;5.99;nan;100032.66;5032183;28;20698;-64
2023/04/14 05:11:32;;;;;;;3.20;2.90;;;6.00;99.90;;;6.03;nan;100036.72;5032736;28;20190;-67
2023/04/14 05:13:59;;;;;;;4.47;3.67;;;6.10;99.90;;;6.10;nan;100035.41;5031295;28;20205;-66
2023/04/14 05:16:27;;;;;;;3.38;3.08;;;6.20;99.90;;;6.15;nan;100041.13;5032441;28;20642;-68
2023/04/14 05:18:54;;;;;;;3.65;2.83;;;6.20;99.90;;;6.22;nan;100044.16;5030264;28;20577;-66
2023/04/14 05:21:21;;;;;;;2.53;2.05;;;6.30;99.90;;;6.29;nan;100037.66;5022843;28;20210;-66
2023/04/14 05:23:48;;;;;;;2.77;2.57;;;6.30;99.90;;;6.42;nan;100042.91;5019983;28;20252;-67
2023/04/14 05:26:15;;;;;;;2.33;2.13;;;6.40;99.90;;;6.71;nan;100039.25;5032446;28;20697;-67
2023/04/14 05:28:45;;;;;;;4.23;2.90;;;6.70;99.90;;;7.04;nan;100042.22;5031329;28;20261;-66
2023/04/14 05:31:12;;;;;;;3.13;2.83;;;7.00;99.90;;;7.42;nan;100037.03;5031645;28;20640;-67
2023/04/14 05:33:39;;;;;;;3.50;3.23;;;7.40;99.90;;;7.89;nan;100041.53;5027980;28;20787;-66
2023/04/14 05:36:06;;;;;;;3.00;2.80;;;7.80;99.90;;;8.30;nan;100042.91;5028395;28;20636;-67
2023/04/14 05:38:40;;;;;;;3.60;2.90;;;8.30;99.90;;;8.81;nan;100053.91;5032037;28;21088;-67
2023/04/14 05:41:08;;;;;;;2.37;2.27;;;8.80;99.90;;;9.27;nan;100044.31;5027832;28;20659;-67
2023/04/14 05:43:35;;;;;;;3.50;3.13;;;9.20;99.90;;;9.70;nan;100043.63;5032484;28;20675;-67
2023/04/14 05:46:02;;;;;;;3.10;2.67;;;9.70;99.90;;;10.03;nan;100046.19;5032795;28;20617;-67
2023/04/14 05:48:31;;;;;;;2.50;2.03;;;10.00;99.90;;;10.44;nan;100048.97;5032632;28;21041;-66
2023/04/14 05:50:58;;;;;;;1.83;1.33;;;10.40;99.90;;;10.81;nan;100045.06;5032114;28;21207;-66
2023/04/14 05:53:26;;;;;;;2.20;2.00;;;10.80;99.90;;;11.31;nan;100050.44;5025747;28;20640;-66
2023/04/14 05:55:53;;;;;;;2.93;2.50;;;11.20;99.90;;;11.81;nan;100056.66;5019146;28;20625;-63
2023/04/14 05:58:20;;;;;;;3.20;2.20;;;11.70;99.90;;;12.16;nan;100051.81;5027708;28;20675;-63
2023/04/14 06:00:47;;;;;;;3.57;3.27;;;12.10;99.90;;;12.60;nan;100056.56;5020845;28;20628;-66
2023/04/14 06:03:15;;;;;;;3.30;3.00;;;12.60;99.90;;;13.14;nan;100056.81;5024696;28;20636;-65
2023/04/14 06:05:43;;;;;;;4.43;2.53;;;13.10;99.90;;;13.62;nan;100050.66;5031890;28;20624;-66
2023/04/14 06:08:09;;;;;;;4.13;2.77;;;13.80;99.90;;;14.16;nan;100052.47;5031863;28;20675;-64
2023/04/14 06:10:36;;;;;;;3.90;2.87;;;14.10;99.90;;;14.57;nan;100042.25;5030833;28;20643;-63
2023/04/14 06:13:03;;;;;;;3.93;2.93;;;14.60;99.90;;;15.00;nan;100046.75;5031710;28;21219;-66
2023/04/14 06:15:31;;;;;;;4.80;2.80;;;15.10;99.90;;;15.44;nan;100044.94;5031015;28;20988;-64
2023/04/14 06:17:58;;;;;;;2.47;2.13;;;15.50;99.90;;;16.03;nan;100054.63;5030981;28;20665;-65
2023/04/14 06:20:25;;;;;;;11.70;2.37;;;16.10;99.90;;;16.50;nan;100047.03;5030209;28;20656;-66
2023/04/14 06:22:52;;;;;;;4.30;2.40;;;16.60;99.90;;;17.15;nan;100051.34;5029431;28;20648;-67
2023/04/14 06:25:19;;;;;;;4.70;3.10;;;17.20;98.70;;;17.85;nan;100041.81;5023909;28;21039;-65
2023/04/14 06:27:46;;;;;;;4.07;2.90;;;17.90;96.20;;;18.59;nan;100055.31;5031871;28;20664;-66
2023/04/14 06:30:15;;;;;;;4.00;2.63;;;18.50;94.60;;;19.03;nan;100052.84;5025955;28;20625;-65
2023/04/14 06:32:42;;;;;;;4.13;2.80;;;19.10;91.60;;;19.55;nan;100052.84;5028978;28;20706;-66
2023/04/14 06:35:09;;;;;;;3.60;2.77;;;19.60;90.50;;;20.17;nan;100052.47;5031500;28;20641;-65
2023/04/14 06:37:45;;;;;;;3.43;2.90;;;20.30;87.10;;;20.91;nan;100052.06;5019787;28;20695;-66
2023/04/14 06:40:12;;;;;;;4.90;3.27;;;21.00;83.60;;;21.61;nan;100044.06;5029673;28;20637;-66
2023/04/14 06:42:39;;;;;;;2.80;2.60;;;21.70;80.60;;;22.08;nan;100045.97;5030548;28;20645;-65
2023/04/14 06:45:06;;;;;;;3.93;3.43;;;22.20;77.00;;;22.39;nan;100057.72;5031100;28;20660;-65
2023/04/14 06:47:33;;;;;;;5.50;4.23;;;22.60;73.50;;;22.53;nan;100049.78;5030278;28;20648;-66
2023/04/14 06:50:01;;;;;;;4.27;3.90;;;22.70;72.90;;;23.03;nan;100055.41;5027052;28;21233;-66
2023/04/14 06:52:29;;;;;;;4.27;3.87;;;23.00;72.00;;;23.25;nan;100044.53;5031030;28;20689;-66
2023/04/14 06:54:55;;;;;;;6.40;4.87;;;23.20;70.60;;;23.41;nan;100046.78;5025465;28;20691;-66
2023/04/14 06:57:22;;;;;;;7.00;6.07;;;23.40;69.80;;;23.22;nan;100052.94;5028235;28;21321;-66
2023/04/14 06:59:50;;;;;;;6.80;4.90;;;23.30;68.70;;;23.47;nan;100064.63;5018392;28;20633;-66
2023/04/14 07:02:17;;;;;;;4.40;3.90;;;23.50;68.30;;;23.33;nan;100063.81;5029682;28;20671;-66
2023/04/14 07:04:44;;;;;;;3.53;3.23;;;23.50;68.30;;;23.44;nan;100047.22;5031494;28;20662;-66
2023/04/14 07:07:13;;;;;;;5.03;3.70;;;23.70;66.30;;;23.61;nan;100044.94;5030691;28;21216;-65
2023/04/14 07:09:42;;;;;;;4.03;3.40;;;23.80;66.60;;;23.90;nan;100039.94;5030811;28;20700;-66
2023/04/14 07:12:14;;;;;;;7.30;4.70;;;24.10;66.00;;;24.12;nan;100045.00;5031496;28;20631;-66
2023/04/14 07:14:41;;;;;;;5.50;4.50;;;24.40;66.10;;;24.58;nan;100049.06;5026695;28;20666;-65
2023/04/14 07:17:08;;;;;;;7.23;4.50;;;24.80;65.00;;;24.73;nan;100043.41;5029385;28;20656;-66
2023/04/14 07:19:35;;;;;;;5.00;3.20;;;25.10;63.20;;;24.83;nan;100038.44;5028977;28;20628;-66
2023/04/14 07:22:02;;;;;;;6.73;4.03;;;25.20;62.70;;;24.85;nan;100035.59;5030864;28;20981;-65
2023/04/14 07:24:29;;;;;;;6.87;4.20;;;25.10;61.50;;;24.86;nan;100037.19;5029938;28;20687;-66
2023/04/14 07:26:56;;;;;;;6.20;3.77;;;24.90;60.80;;;24.54;nan;100036.38;5030605;28;20636;-66
2023/04/14 07:29:23;;;;;;;5.03;3.67;;;24.60;60.50;;;24.23;nan;100034.50;5030245;28;21160;-66
2023/04/14 07:31:50;;;;;;;6.23;3.43;;;24.30;61.10;;;24.17;nan;100035.31;5030177;28;20636;-66
2023/04/14 07:34:18;;;;;;;5.30;3.40;;;24.20;60.80;;;23.84;nan;100037.28;5031195;28;20999;-68
2023/04/14 07:36:45;;;;;;;4.67;3.30;;;24.00;59.70;;;23.77;nan;100028.50;5030874;28;20660;-67
2023/04/14 07:39:12;;;;;;;5.70;3.20;;;23.70;60.90;;;23.58;nan;100030.19;5030115;28;21233;-67
2023/04/14 07:41:40;;;;;;;3.97;3.57;;;23.40;60.70;;;23.10;nan;100034.94;5029434;28;20637;-66
2023/04/14 07:44:07;;;;;;;3.40;3.10;;;23.20;60.40;;;22.91;nan;100035.72;5030035;28;20660;-67
2023/04/14 07:46:34;;;;;;;2.57;2.37;;;22.90;61.20;;;22.97;nan;100029.63;5030130;28;21258;-66
2023/04/14 07:49:01;;;;;;;3.33;2.93;;;23.00;61.30;;;23.23;nan;100034.13;5029978;28;20989;-66
2023/04/14 07:51:28;;;;;;;3.00;2.73;;;23.20;61.40;;;23.54;nan;100023.63;5030438;28;20640;-67
2023/04/14 07:53:55;;;;;;;5.30;3.53;;;23.60;60.40;;;23.76;nan;100029.53;5028310;28;20640;-66
2023/04/14 07:56:22;;;;;;;3.90;3.10;;;24.00;60.30;;;23.89;nan;100029.50;5027447;28;20647;-65
2023/04/14 07:58:49;;;;;;;3.10;2.80;;;24.20;58.90;;;24.24;nan;100025.47;5030196;22;21106;-66
2023/04/14 08:01:16;;;;;;;4.63;3.13;;;24.60;59.70;;;24.54;nan;100023.03;5001077;28;20633;-67
2023/04/14 08:03:43;;;;;;;5.50;3.70;;;25.00;58.50;;;24.85;nan;100027.56;5010745;28;20688;-67
2023/04/14 08:06:11;;;;;;;9.33;3.83;;;25.50;58.50;;;25.20;nan;100024.19;5001341;28;21192;-67
2023/04/14 08:08:39;;;;;;;4.20;3.23;;;26.00;58.10;;;25.69;nan;100020.63;5007215;28;20654;-67
2023/04/14 08:11:06;;;;;;;5.37;3.40;;;26.50;57.00;;;26.35;nan;100022.50;5013501;28;20626;-67
2023/04/14 08:13:33;;;;;;;3.57;2.70;;;27.20;56.30;;;27.13;nan;100028.56;5013801;28;20652;-68
2023/04/14 08:16:00;;;;;;;4.07;3.30;;;27.90;54.80;;;27.61;nan;100018.41;5014719;28;20625;-67
2023/04/14 08:18:27;;;;;;;5.93;3.30;;;28.50;53.20;;;27.86;nan;100018.13;5012701;28;20653;-66
2023/04/14 08:20:55;;;;;;;3.33;3.03;;;28.80;51.70;;;28.03;nan;100019.84;5014416;28;21156;-68
2023/04/14 08:23:23;;;;;;;4.97;3.60;;;29.10;51.10;;;27.83;nan;100016.75;5013266;28;21269;-67
2023/04/14 08:25:50;;;;;;;9.17;4.17;;;28.90;50.80;;;27.95;nan;100016.72;5014156;28;20680;-66
2023/04/14 08:28:17;;;;;;;3.97;2.80;;;28.90;51.00;;;28.07;nan;100007.59;5009344;28;20692;-67
2023/04/14 08:30:44;;;;;;;4.90;3.47;;;29.10;50.40;;;28.17;nan;100012.38;4995260;28;21193;-67
2023/04/14 08:33:11;;;;;;;4.93;3.20;;;29.30;50.30;;;28.33;nan;100014.25;4982464;28;20645;-66
2023/04/14 08:35:38;;;;;;;3.40;3.10;;;29.40;50.30;;;28.78;nan;100009.72;5015629;28;20638;-67
2023/04/14 08:38:08;;;;;;;5.70;3.80;;;30.00;49.50;;;29.29;nan;100013.22;5012638;28;20660;-69
2023/04/14 08:40:39;;;;;;;5.27;3.33;;;30.40;49.60;;;29.95;nan;100017.63;5012990;28;20640;-67
2023/04/14 08:43:07;;;;;;;3.47;2.70;;;;;;;30.91;nan;100019.47;5013652;28;20637;-68
2023/04/14 08:45:35;;;;;;;3.03;2.83;;;31.70;47.00;;;31.61;nan;100021.81;5013441;28;20661;-68
2023/04/14 08:48:04;;;;;;;4.90;3.30;;;32.30;47.10;;;31.88;nan;100014.41;5011641;28;21318;-67
2023/04/14 08:51:01;;;;;;;3.50;3.20;;;32.70;45.80;;;31.76;nan;100011.13;5014036;28;20646;-67
2023/04/14 08:53:30;;;;;;;2.53;2.33;;;32.50;45.70;;;31.71;nan;100005.72;5026411;28;20630;-66
2023/04/14 08:56:02;;;;;;;3.43;2.03;;;32.60;44.60;;;31.15;nan;100015.34;5008569;28;21228;-68
2023/04/14 08:58:31;;;;;;;3.30;2.53;;;32.20;45.00;;;31.18;nan;100012.09;5010993;28;20665;-68
2023/04/14 09:00:58;;;;;;;3.30;2.20;;;32.10;45.40;;;31.96;nan;100009.34;5009399;28;20641;-66
2023/04/14 09:03:26;;;;;;;2.60;2.40;;;32.80;45.30;;;32.27;nan;100004.00;5002246;28;20649;-68
2023/04/14 09:05:53;;;;;;;1.87;1.77;;;33.20;44.80;;;33.00;nan;100006.28;5011963;28;20664;-67
2023/04/14 09:08:21;;;;;;;3.80;2.67;;;33.80;43.90;;;33.24;nan;100001.94;5007923;28;20661;-65
2023/04/14 09:10:50;;;;;;;2.77;2.53;;;34.20;43.90;;;33.87;nan;100008.50;5008549;28;20637;-67
2023/04/14 09:13:21;;;;;;;5.53;2.77;;;34.60;43.40;;;34.19;nan;99999.97;5012522;28;20638;-68
2023/04/14 09:15:49;;;;;;;2.80;2.60;;;35.10;42.80;;;34.34;nan;99999.88;5011387;28;20641;-68
2023/04/14 09:18:16;;;;;;;3.53;2.50;;;35.40;42.30;;;34.29;nan;100000.72;5012619;28;20669;-69
2023/04/14 09:20:48;;;;;;;3.30;2.47;;;35.50;42.10;;;34.52;nan;99996.56;5011220;28;20626;-67
2023/04/14 09:23:36;;;;;;;2.67;2.20;;;35.70;41.90;;;34.45;nan;99995.19;5012165;28;20633;-67
2023/04/14 09:26:08;;;;;;;3.30;2.87;;;35.60;41.50;;;34.86;nan;99989.19;5005267;28;21057;-67
2023/04/14 09:28:36;;;;;;;3.07;2.77;;;35.80;42.20;;;35.31;nan;99990.66;4993404;28;20638;-68
2023/04/14 09:31:04;;;;;;;2.93;2.40;;;36.20;41.80;;;35.63;nan;99981.94;5010784;28;20633;-68
2023/04/14 09:33:32;;;;;;;2.90;2.70;;;36.60;41.70;;;35.71;nan;99992.16;5013177;28;20629;-66
2023/04/14 09:36:00;;;;;;;2.10;1.83;;;36.70;41.10;;;35.78;nan;99984.44;5011538;28;21209;-67
2023/04/14 09:38:35;;;;;;;5.80;2.70;;;36.80;40.70;;;35.76;nan;99983.94;5012713;28;20706;-67
2023/04/14 09:41:06;;;;;;;2.90;2.40;;;36.90;40.60;;;36.05;nan;99984.66;5008542;28;20635;-68
2023/04/14 09:43:33;;;;;;;3.47;2.37;;;37.00;40.60;;;36.09;nan;99977.56;5010770;28;20639;-68
2023/04/14 09:46:07;;;;;;;3.10;2.40;;;37.10;40.20;;;35.70;nan;99990.53;5010947;28;21213;-69
2023/04/14 09:48:36;;;;;;;2.97;2.30;;;36.90;40.10;;;35.77;nan;99980.13;5011053;28;20661;-68
2023/04/14 09:51:08;;;;;;;2.90;2.10;;;36.80;39.70;;;36.08;nan;99973.19;5012795;28;20633;-68
2023/04/14 09:53:37;;;;;;;2.10;1.90;;;37.10;39.10;;;35.86;nan;99971.03;5012372;28;21004;-68
2023/04/14 09:56:08;;;;;;;2.23;2.00;;;37.10;38.30;;;35.79;nan;99970.59;5011419;28;20644;-68
2023/04/14 09:58:38;;;;;;;2.30;2.10;;;36.80;38.90;;;36.56;nan;99966.53;5005829;28;20731;-68
2023/04/14 10:01:16;;;;;;;7.87;2.97;;;37.40;39.00;;;36.56;nan;99957.56;5007494;28;20642;-69
2023/04/14 10:03:45;;;;;;;2.33;2.23;;;37.50;38.60;;;36.51;nan;99966.59;4993131;28;20614;-66
2023/04/14 10:06:21;;;;;;;3.60;2.10;;;37.40;38.60;;;36.33;nan;99959.25;5006317;28;21274;-68
2023/04/14 10:08:50;;;;;;;2.77;2.57;;;37.40;38.20;;;36.17;nan;99949.72;4995707;28;20657;-68
2023/04/14 10:11:23;;;;;;;2.30;2.10;;;37.10;38.90;;;35.73;nan;99949.25;5012154;28;20663;-68
2023/04/14 10:14:05;;;;;;;2.70;2.50;;;36.80;38.70;;;35.48;nan;99946.88;5006452;28;20625;-67
2023/04/14 10:16:33;;;;;;;7.93;2.33;;;36.40;39.10;;;34.62;nan;99945.00;5012008;28;21258;-67
2023/04/14 10:19:00;;;;;;;3.40;2.37;;;35.60;39.40;;;34.12;nan;99937.19;5011715;28;20657;-67
2023/04/14 10:21:28;;;;;;;2.60;1.73;;;35.00;39.20;;;33.36;nan;99932.13;5011455;28;20641;-67
2023/04/14 10:23:56;;;;;;;2.93;2.13;;;34.00;40.00;;;32.55;nan;99930.63;5011691;28;21011;-68
2023/04/14 10:26:24;;;;;;;2.90;2.30;;;32.90;40.70;;;31.44;nan;99924.13;5010613;28;21077;-67
2023/04/14 10:28:54;;;;;;;3.03;1.83;;;31.70;41.80;;;29.95;nan;99927.00;5011872;28;20664;-67
2023/04/14 10:31:37;;;;;;;2.10;1.57;;;30.10;42.30;;;28.80;nan;99924.38;5011324;28;20630;-67
2023/04/14 10:34:11;;;;;;;2.13;1.87;;;28.80;43.20;;;27.57;nan;99918.13;5009871;28;20613;-67
2023/04/14 10:36:39;;;;;;;5.90;2.30;;;27.60;44.70;;;26.10;nan;99915.72;5009012;28;20637;-67
2023/04/14 10:39:08;;;;;;;1.63;1.50;;;26.10;45.90;;;25.11;nan;99908.03;5012114;28;20669;-68
2023/04/14 10:41:49;;;;;;;3.87;1.47;;;25.10;46.40;;;23.76;nan;99909.66;5011733;28;20633;-67
2023/04/14 10:44:33;;;;;;;1.40;1.27;;;24.00;47.10;;;22.30;nan;99906.59;5011889;28;20694;-67
2023/04/14 10:47:06;;;;;;;2.40;1.50;;;22.50;48.90;;;21.16;nan;99899.47;4994580;28;20692;-67
2023/04/14 10:49:39;;;;;;;2.63;1.30;;;21.10;50.90;;;20.73;nan;99903.22;4999079;28;20977;-67